Time;durP1;ratioP1;P1;durP2;ratioP2;P2;SDS_P1;SDS_P2;PMS_P1;PMS_P2;Temp;Humidity;BMP_temperature;BMP_pressure;BME280_temperature;BME280_humidity;BME280_pressure;Samples;Min_cycle;Max_cycle;Signal;HPM_P1;HPM_P2
2021/11/29 00:01:07;;;;;;;26.45;18.52;;;;;;;;;;4995456;28;20053;-91
2021/11/29 00:03:33;;;;;;;25.00;18.83;;;;;;;;;;4999110;28;20037;-90
2021/11/29 00:05:58;;;;;;;28.38;19.63;;;;;;;;;;5013060;28;20026;-91
2021/11/29 00:08:23;;;;;;;25.92;18.30;;;;;;;;;;5013387;28;20104;-91
2021/11/29 00:10:49;;;;;;;24.13;18.10;;;;;;;;;;5013329;28;20030;-91
2021/11/29 00:13:14;;;;;;;26.67;18.83;;;;;;;;;;4995017;28;20033;-91
2021/11/29 00:15:39;;;;;;;25.48;18.33;;;;;;;;;;4995652;28;20057;-91
2021/11/29 00:18:05;;;;;;;24.98;16.80;;;;;;;;;;4995261;28;20117;-90
2021/11/29 00:20:30;;;;;;;26.63;18.48;;;;;;;;;;5013449;28;20488;-91
2021/11/29 00:22:56;;;;;;;23.88;17.58;;;;;;;;;;5013170;28;20034;-91
2021/11/29 00:25:21;;;;;;;25.90;18.25;;;;;;;;;;5013389;28;20064;-91
2021/11/29 00:27:46;;;;;;;22.98;16.70;;;;;;;;;;4996495;28;20030;-90
2021/11/29 00:30:13;;;;;;;22.88;15.90;;;;;;;;;;4995229;28;20021;-91
2021/11/29 00:32:38;;;;;;;24.77;17.67;;;;;;;;;;4995432;28;20481;-91
2021/11/29 00:35:04;;;;;;;23.60;17.48;;;;;;;;;;5012321;28;20033;-91
2021/11/29 00:37:30;;;;;;;23.38;16.77;;;;;;;;;;4995243;28;20038;-91
2021/11/29 00:39:55;;;;;;;21.75;16.65;;;;;;;;;;5022639;28;20189;-91
2021/11/29 00:42:21;;;;;;;22.85;16.20;;;;;;;;;;5012512;28;20037;-90
2021/11/29 00:44:46;;;;;;;21.30;15.77;;;;;;;;;;4994815;28;20029;-91
2021/11/29 00:47:11;;;;;;;24.17;16.27;;;;;;;;;;4994945;28;20033;-90
2021/11/29 00:49:36;;;;;;;25.52;18.17;;;;;;;;;;5012663;28;20017;-91
2021/11/29 00:52:02;;;;;;;23.50;16.48;;;;;;;;;;5012496;28;20026;-91
2021/11/29 00:54:27;;;;;;;23.98;18.15;;;;;;;;;;5012422;28;20021;-91
2021/11/29 00:56:52;;;;;;;20.98;15.43;;;;;;;;;;4995987;28;20018;-91
2021/11/29 00:59:18;;;;;;;20.65;15.88;;;;;;;;;;4994613;28;20017;-91
2021/11/29 01:01:44;;;;;;;22.98;17.27;;;;;;;;;;4994978;28;20046;-91
2021/11/29 01:04:10;;;;;;;23.92;16.63;;;;;;;;;;4994503;28;20018;-90
2021/11/29 01:06:35;;;;;;;23.13;15.60;;;;;;;;;;5002831;28;20017;-90
2021/11/29 01:09:00;;;;;;;22.20;16.63;;;;;;;;;;4998208;28;20391;-90
2021/11/29 01:11:26;;;;;;;21.08;15.57;;;;;;;;;;5012219;28;20125;-90
2021/11/29 01:13:51;;;;;;;22.15;15.95;;;;;;;;;;5011880;28;20025;-90
2021/11/29 01:16:16;;;;;;;21.88;15.63;;;;;;;;;;5012013;28;20026;-90
2021/11/29 01:18:42;;;;;;;22.95;16.80;;;;;;;;;;4994136;28;20029;-90
2021/11/29 01:21:07;;;;;;;21.73;16.05;;;;;;;;;;5011864;28;20486;-90
2021/11/29 01:23:33;;;;;;;25.85;18.35;;;;;;;;;;4993604;28;20072;-90
2021/11/29 01:25:59;;;;;;;20.45;15.45;;;;;;;;;;4994477;28;20022;-90
2021/11/29 01:28:25;;;;;;;23.00;15.45;;;;;;;;;;4993845;28;20044;-90
2021/11/29 01:30:51;;;;;;;20.13;15.52;;;;;;;;;;4993961;28;20044;-90
2021/11/29 01:33:17;;;;;;;20.30;15.55;;;;;;;;;;4994120;28;20018;-90
2021/11/29 01:35:42;;;;;;;22.15;15.00;;;;;;;;;;4994129;28;20140;-90
2021/11/29 01:38:08;;;;;;;21.25;15.80;;;;;;;;;;4993734;28;20030;-90
2021/11/29 01:40:33;;;;;;;22.55;15.90;;;;;;;;;;5011362;28;20393;-90
2021/11/29 01:43:06;;;;;;;20.25;15.57;;;;;;;;;;4993713;28;20026;-91
2021/11/29 01:45:33;;;;;;;19.63;14.95;;;;;;;;;;5010814;28;20470;-90
2021/11/29 01:47:59;;;;;;;22.42;16.17;;;;;;;;;;4993406;28;20080;-91
2021/11/29 01:50:24;;;;;;;22.23;15.65;;;;;;;;;;4994038;28;20172;-90
2021/11/29 01:52:50;;;;;;;19.55;15.63;;;;;;;;;;5011586;28;20021;-90
2021/11/29 01:55:16;;;;;;;18.42;14.95;;;;;;;;;;5012493;28;20287;-90
2021/11/29 01:57:41;;;;;;;21.05;15.38;;;;;;;;;;5011487;28;20045;-90
2021/11/29 02:00:08;;;;;;;24.27;17.38;;;;;;;;;;5011630;28;20053;-90
2021/11/29 02:02:34;;;;;;;21.67;16.05;;;;;;;;;;4993738;28;20116;-90
2021/11/29 02:04:59;;;;;;;20.25;15.40;;;;;;;;;;4985923;28;20120;-90
2021/11/29 02:07:25;;;;;;;23.23;16.83;;;;;;;;;;5011202;28;20102;-91
2021/11/29 02:09:51;;;;;;;22.05;15.88;;;;;;;;;;5013663;28;20375;-90
2021/11/29 02:12:16;;;;;;;22.08;15.38;;;;;;;;;;5011314;28;20032;-91
2021/11/29 02:14:42;;;;;;;19.10;14.90;;;;;;;;;;4993484;28;20541;-90
2021/11/29 02:17:07;;;;;;;22.05;16.55;;;;;;;;;;4993494;28;20022;-91
2021/11/29 02:19:37;;;;;;;19.75;15.65;;;;;;;;;;4993463;28;20390;-90
2021/11/29 02:22:03;;;;;;;22.20;15.23;;;;;;;;;;5011901;28;20022;-90
2021/11/29 02:24:28;;;;;;;19.52;15.23;;;;;;;;;;5011219;28;20136;-91
2021/11/29 02:26:54;;;;;;;21.30;17.05;;;;;;;;;;4993600;28;20535;-90
2021/11/29 02:29:19;;;;;;;18.50;14.10;;;;;;;;;;4993574;28;20121;-90
2021/11/29 02:31:46;;;;;;;17.10;13.68;;;;;;;;;;4993433;28;20097;-90
2021/11/29 02:34:13;;;;;;;21.38;14.43;;;;;;;;;;5011303;28;20390;-90
2021/11/29 02:36:39;;;;;;;19.85;13.05;;;;;;;;;;5011176;28;20028;-91
2021/11/29 02:39:05;;;;;;;17.80;14.43;;;;;;;;;;5010981;28;20017;-90
2021/11/29 02:41:30;;;;;;;18.65;13.65;;;;;;;;;;5017521;28;20014;-90
2021/11/29 02:43:56;;;;;;;20.02;14.95;;;;;;;;;;5011285;28;20462;-90
2021/11/29 02:46:21;;;;;;;18.20;14.43;;;;;;;;;;5010672;28;20010;-90
2021/11/29 02:48:47;;;;;;;15.70;12.85;;;;;;;;;;4992866;28;20030;-90
2021/11/29 02:51:17;;;;;;;18.42;14.55;;;;;;;;;;4993040;28;20080;-90
2021/11/29 02:53:43;;;;;;;18.95;13.57;;;;;;;;;;4993177;28;20057;-90
2021/11/29 02:56:08;;;;;;;16.00;13.52;;;;;;;;;;4993084;28;20064;-90
2021/11/29 02:58:33;;;;;;;16.20;12.88;;;;;;;;;;5014093;28;20115;-91
2021/11/29 03:00:58;;;;;;;22.38;15.60;;;;;;;;;;4998218;28;20823;-90
2021/11/29 03:03:23;;;;;;;16.13;13.20;;;;;;;;;;5014369;28;20018;-90
2021/11/29 03:05:49;;;;;;;14.82;12.82;;;;;;;;;;4996813;28;20132;-90
2021/11/29 03:08:14;;;;;;;16.40;12.80;;;;;;;;;;4996555;28;20104;-90
2021/11/29 03:10:39;;;;;;;17.88;13.73;;;;;;;;;;5000395;28;20033;-90
2021/11/29 03:13:04;;;;;;;17.55;14.15;;;;;;;;;;5021588;28;20030;-90
2021/11/29 03:15:30;;;;;;;19.15;13.90;;;;;;;;;;5014369;28;20557;-90
2021/11/29 03:17:55;;;;;;;15.18;12.50;;;;;;;;;;5013689;28;20452;-90
2021/11/29 03:20:20;;;;;;;14.55;12.93;;;;;;;;;;4996480;28;20393;-90
2021/11/29 03:22:45;;;;;;;17.60;13.70;;;;;;;;;;4996342;28;20026;-90
2021/11/29 03:25:11;;;;;;;15.65;13.15;;;;;;;;;;5013747;28;20552;-90
2021/11/29 03:27:37;;;;;;;16.73;12.98;;;;;;;;;;5013863;28;20034;-90
2021/11/29 03:30:03;;;;;;;16.77;13.70;;;;;;;;;;4996644;28;20057;-89
2021/11/29 03:32:28;;;;;;;16.38;13.00;;;;;;;;;;4996123;28;20041;-90
2021/11/29 03:34:53;;;;;;;16.20;12.68;;;;;;;;;;5013875;28;20033;-90
2021/11/29 03:37:18;;;;;;;14.90;12.15;;;;;;;;;;4996431;28;20049;-91
2021/11/29 03:39:44;;;;;;;15.23;13.40;;;;;;;;;;5014554;28;20026;-90
2021/11/29 03:42:09;;;;;;;14.35;12.23;;;;;;;;;;5016501;28;20067;-90
2021/11/29 03:44:35;;;;;;;12.63;11.27;;;;;;;;;;5014127;28;20108;-91
2021/11/29 03:47:01;;;;;;;13.18;11.65;;;;;;;;;;4996020;28;20034;-91
2021/11/29 03:49:27;;;;;;;17.00;12.85;;;;;;;;;;4995829;28;20038;-91
2021/11/29 03:51:52;;;;;;;14.55;12.20;;;;;;;;;;4996038;28;20132;-90
2021/11/29 03:54:18;;;;;;;16.88;12.80;;;;;;;;;;5013123;28;20025;-90
2021/11/29 03:56:43;;;;;;;14.07;11.63;;;;;;;;;;4996444;28;20021;-90
2021/11/29 03:59:08;;;;;;;16.60;12.98;;;;;;;;;;4995872;28;20434;-90
2021/11/29 04:01:34;;;;;;;16.10;12.82;;;;;;;;;;5013245;28;20058;-90
2021/11/29 04:03:59;;;;;;;14.07;11.57;;;;;;;;;;4992444;28;20022;-90
2021/11/29 04:06:25;;;;;;;17.52;12.95;;;;;;;;;;5008831;28;20121;-90
2021/11/29 04:08:50;;;;;;;19.17;14.43;;;;;;;;;;4994509;28;20490;-90
2021/11/29 04:11:15;;;;;;;14.13;12.23;;;;;;;;;;5018632;28;20030;-90
2021/11/29 04:13:42;;;;;;;18.52;13.65;;;;;;;;;;4995645;28;20045;-91
2021/11/29 04:16:08;;;;;;;19.50;15.25;;;;;;;;;;4995620;28;20065;-90
2021/11/29 04:18:35;;;;;;;16.58;13.30;;;;;;;;;;4995540;28;20053;-90
2021/11/29 04:21:00;;;;;;;15.75;12.93;;;;;;;;;;4992065;28;20018;-90
2021/11/29 04:23:26;;;;;;;16.73;13.43;;;;;;;;;;5008731;28;20022;-90
2021/11/29 04:25:57;;;;;;;15.32;12.38;;;;;;;;;;4995293;28;20022;-90
2021/11/29 04:28:23;;;;;;;18.15;14.70;;;;;;;;;;4995516;28;20038;-91
2021/11/29 04:30:48;;;;;;;16.92;12.93;;;;;;;;;;5013370;28;20389;-90
2021/11/29 04:33:14;;;;;;;14.88;12.23;;;;;;;;;;5012689;28;20029;-90
2021/11/29 04:35:39;;;;;;;14.80;12.43;;;;;;;;;;5012755;28;20053;-90
2021/11/29 04:38:05;;;;;;;13.73;11.93;;;;;;;;;;4994946;28;20014;-90
2021/11/29 04:40:30;;;;;;;16.85;12.75;;;;;;;;;;5013103;28;20029;-90
2021/11/29 04:42:55;;;;;;;15.07;12.75;;;;;;;;;;4997109;28;20040;-90
2021/11/29 04:45:21;;;;;;;19.02;13.30;;;;;;;;;;4994961;28;20030;-91
2021/11/29 04:47:46;;;;;;;17.40;14.02;;;;;;;;;;4994677;28;20034;-90
2021/11/29 04:50:12;;;;;;;13.48;12.07;;;;;;;;;;5012407;28;20413;-90
2021/11/29 04:52:37;;;;;;;15.20;12.10;;;;;;;;;;4994514;28;20022;-90
2021/11/29 04:55:03;;;;;;;14.90;12.40;;;;;;;;;;4995095;28;20542;-90
2021/11/29 04:57:28;;;;;;;13.52;11.80;;;;;;;;;;4994846;28;20104;-90
2021/11/29 04:59:55;;;;;;;13.15;11.77;;;;;;;;;;4994019;28;20058;-90
2021/11/29 05:02:20;;;;;;;17.02;12.77;;;;;;;;;;4994427;28;20022;-90
2021/11/29 05:04:46;;;;;;;13.68;12.00;;;;;;;;;;5011950;28;20049;-90
2021/11/29 05:07:12;;;;;;;18.23;12.15;;;;;;;;;;4994307;28;20704;-90
2021/11/29 05:09:40;;;;;;;13.07;11.23;;;;;;;;;;5011617;28;20029;-90
2021/11/29 05:12:05;;;;;;;11.07;9.98;;;;;;;;;;5011747;28;20020;-90
2021/11/29 05:14:31;;;;;;;11.43;10.15;;;;;;;;;;5014351;28;20462;-90
2021/11/29 05:16:56;;;;;;;11.82;10.43;;;;;;;;;;4994404;28;20025;-90
2021/11/29 05:19:21;;;;;;;12.27;10.80;;;;;;;;;;5011990;28;20018;-91
2021/11/29 05:21:47;;;;;;;12.50;11.15;;;;;;;;;;4994282;28;20041;-90
2021/11/29 05:24:13;;;;;;;12.50;10.88;;;;;;;;;;4995189;28;20022;-91
2021/11/29 05:26:49;;;;;;;12.75;10.80;;;;;;;;;;5001311;28;20036;-93
2021/11/29 05:29:18;;;;;;;11.15;9.95;;;;;;;;;;5006268;28;20026;-94
2021/11/29 05:31:48;;;;;;;12.95;9.75;;;;;;;;;;5006996;28;20086;-94
2021/11/29 05:34:16;;;;;;;11.10;9.77;;;;;;;;;;5158395;22;20049;-94
2021/11/29 05:36:45;;;;;;;9.90;8.30;;;;;;;;;;5049554;28;20033;-94
2021/11/29 05:39:16;;;;;;;7.97;7.18;;;;;;;;;;5048891;28;20028;-93
2021/11/29 05:41:42;;;;;;;10.23;7.47;;;;;;;;;;5045431;28;20615;-93
2021/11/29 05:44:07;;;;;;;9.02;6.43;;;;;;;;;;5033483;28;20465;-90
2021/11/29 05:46:33;;;;;;;5.93;5.43;;;;;;;;;;5032988;28;20127;-90
2021/11/29 05:48:58;;;;;;;6.43;5.82;;;;;;;;;;5051381;28;20488;-90
2021/11/29 05:51:25;;;;;;;6.43;5.82;;;;;;;;;;5033803;28;20143;-90
2021/11/29 05:53:50;;;;;;;9.98;6.43;;;;;;;;;;5054389;28;20059;-90
2021/11/29 05:56:16;;;;;;;6.45;5.75;;;;;;;;;;5034757;28;20461;-89
2021/11/29 05:58:41;;;;;;;5.97;5.28;;;;;;;;;;5052213;28;20059;-89
2021/11/29 06:01:06;;;;;;;6.50;5.82;;;;;;;;;;5052932;28;20025;-90
2021/11/29 06:03:32;;;;;;;5.60;5.03;;;;;;;;;;5051918;28;20029;-90
2021/11/29 06:05:57;;;;;;;5.18;4.68;;;;;;;;;;5032848;28;20116;-90
2021/11/29 06:08:22;;;;;;;4.15;3.85;;;;;;;;;;5032901;28;20102;-91
2021/11/29 06:10:48;;;;;;;4.10;3.70;;;;;;;;;;5033392;28;20025;-90
2021/11/29 06:13:15;;;;;;;3.30;2.80;;;;;;;;;;5032742;28;20021;-90
2021/11/29 06:15:40;;;;;;;3.40;2.78;;;;;;;;;;5032842;28;20048;-89
2021/11/29 06:18:05;;;;;;;3.63;3.05;;;;;;;;;;5032268;28;20469;-90
2021/11/29 06:20:31;;;;;;;3.55;3.17;;;;;;;;;;5050473;28;20032;-90
2021/11/29 06:22:56;;;;;;;3.13;2.83;;;;;;;;;;5032537;28;20020;-90
2021/11/29 06:25:22;;;;;;;3.30;2.50;;;;;;;;;;5032795;28;20459;-90
2021/11/29 06:27:48;;;;;;;3.08;2.78;;;;;;;;;;5032539;28;20032;-90
2021/11/29 06:30:14;;;;;;;2.95;2.72;;;;;;;;;;5032509;28;20385;-90
2021/11/29 06:32:39;;;;;;;2.83;2.63;;;;;;;;;;5034170;28;20025;-90
2021/11/29 06:35:05;;;;;;;6.75;3.28;;;;;;;;;;5054532;28;20400;-90
2021/11/29 06:37:31;;;;;;;3.00;2.70;;;;;;;;;;5036526;28;20025;-90
2021/11/29 06:39:56;;;;;;;3.55;3.25;;;;;;;;;;5033658;28;20017;-90
2021/11/29 06:42:25;;;;;;;6.70;2.70;;;;;;;;;;5031588;28;20021;-90
2021/11/29 06:44:51;;;;;;;3.13;2.63;;;;;;;;;;5035798;28;20744;-90
2021/11/29 06:47:23;;;;;;;3.65;2.50;;;;;;;;;;5028367;28;20052;-90
2021/11/29 06:49:52;;;;;;;3.08;2.72;;;;;;;;;;5034803;28;20159;-90
2021/11/29 06:52:21;;;;;;;3.60;2.08;;;;;;;;;;5036297;22;20053;-90
2021/11/29 07:36:11;;;;;;;6.88;2.72;;;;;;;;;;5352059;22;20056;-90
2021/11/29 07:41:29;;;;;;;6.18;1.40;;;;;;;;;;5030343;28;20532;-90
2021/11/29 07:43:57;;;;;;;1.40;1.30;;;;;;;;;;5011093;28;20075;-90
2021/11/29 07:46:27;;;;;;;3.85;2.08;;;;;;;;;;5027419;28;20473;-90
2021/11/29 08:01:39;;;;;;;2.75;2.10;;;;;;;;;;5025803;28;20103;-91
2021/11/29 08:15:54;;;;;;;3.22;2.80;;;;;;;;;;4556310;22;20028;-91
2021/11/29 08:26:44;;;;;;;3.50;2.38;;;;;;;;;;2740910;22;21490;31
2021/11/29 08:31:51;;;;;;;3.55;2.90;;;;;;;;;;5524680;22;19924;-92
2021/11/29 10:03:56;;;;;;;3.22;2.22;;;;;;;;;;1964293;22;20233;-91
2021/11/29 10:06:22;;;;;;;3.13;2.10;;;;;;;;;;5004045;28;20064;-90
2021/11/29 10:16:56;;;;;;;3.35;2.47;;;;;;;;;;1443160;22;20364;-91
2021/11/29 12:40:30;;;;;;;8.45;3.28;;;;;;;;;;5846924;22;20132;-92
2021/11/29 12:48:38;;;;;;;6.03;3.50;;;;;;;;;;5955937;22;20190;-92
2021/11/29 13:53:31;;;;;;;8.32;2.72;;;;;;;;;;4979331;22;20080;-87
2021/11/29 13:56:00;;;;;;;5.32;3.03;;;;;;;;;;5050959;28;20039;-87
2021/11/29 13:58:30;;;;;;;11.07;3.53;;;;;;;;;;5068349;28;20099;-86
2021/11/29 14:00:55;;;;;;;7.18;3.25;;;;;;;;;;5038670;28;20052;-87
2021/11/29 14:03:23;;;;;;;4.40;2.60;;;;;;;;;;5048536;28;20051;-86
2021/11/29 14:14:01;;;;;;;7.38;3.42;;;;;;;;;;2157627;22;20042;31
2021/11/29 14:32:57;;;;;;;7.80;5.15;;;;;;;;;;1354619;22;20314;-91
2021/11/29 14:40:38;;;;;;;6.50;4.30;;;;;;;;;;3746242;22;20248;-90
2021/11/29 14:43:03;;;;;;;7.10;3.97;;;;;;;;;;5029693;28;20045;-91
2021/11/29 14:48:00;;;;;;;6.15;4.03;;;;;;;;;;5076356;22;20064;-89
2021/11/29 14:50:30;;;;;;;9.48;4.05;;;;;;;;;;5052493;28;20115;-90
2021/11/29 14:53:18;;;;;;;7.93;5.15;;;;;;;;;;5050541;28;20021;-90
2021/11/29 14:55:50;;;;;;;10.20;4.57;;;;;;;;;;5035936;28;20028;-90
2021/11/29 14:58:17;;;;;;;6.40;4.70;;;;;;;;;;5034812;28;20028;-90
2021/11/29 15:00:45;;;;;;;8.98;4.65;;;;;;;;;;5033607;28;20779;-90
2021/11/29 15:05:51;;;;;;;10.90;5.25;;;;;;;;;;5082480;22;20083;-90
2021/11/29 15:08:21;;;;;;;7.65;4.10;;;;;;;;;;5049644;28;20082;-89
2021/11/29 15:10:50;;;;;;;8.98;4.03;;;;;;;;;;5053231;28;20482;-89
2021/11/29 15:13:19;;;;;;;11.35;5.70;;;;;;;;;;5073098;28;20016;-89
2021/11/29 15:15:45;;;;;;;7.93;4.50;;;;;;;;;;5054349;28;20031;-89
2021/11/29 15:18:11;;;;;;;7.15;4.40;;;;;;;;;;5054625;28;20021;-89
2021/11/29 15:20:42;;;;;;;6.22;4.53;;;;;;;;;;5055129;28;20066;-89
2021/11/29 15:23:08;;;;;;;11.75;4.93;;;;;;;;;;5072340;28;20031;-89
2021/11/29 15:25:42;;;;;;;5.43;4.10;;;;;;;;;;5051723;28;20020;-89
2021/11/29 15:28:07;;;;;;;9.75;4.72;;;;;;;;;;5058655;28;20024;-89
2021/11/29 15:33:21;;;;;;;7.07;4.68;;;;;;;;;;3401251;22;20510;-89
2021/11/29 15:35:54;;;;;;;8.23;5.43;;;;;;;;;;5054380;22;20064;-89
2021/11/29 15:38:24;;;;;;;9.75;4.85;;;;;;;;;;5034415;22;20509;-88
2021/11/29 15:43:28;;;;;;;10.50;5.70;;;;;;;;;;5053753;22;20063;-89
2021/11/29 15:45:57;;;;;;;9.55;5.38;;;;;;;;;;5031472;28;20108;-89
2021/11/29 15:48:28;;;;;;;9.68;5.63;;;;;;;;;;5034095;28;20037;-89
2021/11/29 15:50:55;;;;;;;7.38;4.75;;;;;;;;;;5031175;28;20021;-89
2021/11/29 15:53:25;;;;;;;9.98;5.85;;;;;;;;;;5030774;28;20055;-90
2021/11/29 16:13:08;;;;;;;7.28;5.32;;;;;;;;;;3634154;22;20241;-90
2021/11/29 17:02:55;;;;;;;9.57;5.35;;;;;;;;;;4564183;22;21247;-89
2021/11/29 17:05:25;;;;;;;12.95;6.72;;;;;;;;;;5035959;28;20069;-90
2021/11/29 17:12:54;;;;;;;10.85;5.90;;;;;;;;;;5105569;22;20103;-89
2021/11/29 17:15:23;;;;;;;12.18;6.43;;;;;;;;;;5008301;28;20057;-89
2021/11/29 17:17:50;;;;;;;8.07;5.55;;;;;;;;;;5019438;28;20021;-90
2021/11/29 17:25:30;;;;;;;10.88;6.97;;;;;;;;;;4771971;22;20065;-90
2021/11/29 17:48:38;;;;;;;9.68;6.70;;;;;;;;;;5749122;22;20141;-89
2021/11/29 18:09:42;;;;;;;16.23;11.23;;;;;;;;;;5033806;28;20137;-90
2021/11/29 19:20:01;;;;;;;48.58;8.73;;;;;;;;;;5902099;22;20030;-90
2021/11/29 19:22:30;;;;;;;11.40;7.85;;;;;;;;;;5059295;22;20086;-91
2021/11/29 19:25:01;;;;;;;11.02;8.20;;;;;;;;;;5030847;28;20115;-90
2021/11/29 19:27:29;;;;;;;11.20;7.75;;;;;;;;;;5120149;22;20061;-90
2021/11/29 19:29:55;;;;;;;14.70;7.78;;;;;;;;;;5035459;28;20032;-90
2021/11/29 19:32:20;;;;;;;11.68;7.97;;;;;;;;;;5035492;28;20155;-90
2021/11/29 19:34:45;;;;;;;12.25;7.20;;;;;;;;;;5039355;28;20183;-90
2021/11/29 19:37:11;;;;;;;13.05;7.57;;;;;;;;;;5036167;28;20021;-90
2021/11/29 19:39:37;;;;;;;12.10;7.68;;;;;;;;;;5035544;28;20071;-90
2021/11/29 19:42:04;;;;;;;12.70;8.07;;;;;;;;;;5035150;28;20017;-90
2021/11/29 19:44:29;;;;;;;14.98;8.68;;;;;;;;;;5035076;28;20017;-90
2021/11/29 19:46:54;;;;;;;14.45;8.23;;;;;;;;;;5035564;28;20438;-90
2021/11/29 19:49:21;;;;;;;13.18;8.02;;;;;;;;;;5053042;28;20025;-90
2021/11/29 19:51:46;;;;;;;12.18;7.70;;;;;;;;;;5035150;28;20120;-90
2021/11/29 19:54:11;;;;;;;12.90;7.28;;;;;;;;;;5035066;28;20103;-90
2021/11/29 19:56:36;;;;;;;10.60;7.10;;;;;;;;;;5035980;28;20029;-90
2021/11/29 19:59:02;;;;;;;13.18;8.32;;;;;;;;;;5035006;28;20020;-90
2021/11/29 20:01:28;;;;;;;18.85;8.65;;;;;;;;;;5053588;28;20025;-90
2021/11/29 20:03:53;;;;;;;15.82;8.75;;;;;;;;;;5052485;28;20024;-90
2021/11/29 20:06:19;;;;;;;13.40;8.85;;;;;;;;;;5035101;28;20029;-90
2021/11/29 20:08:45;;;;;;;15.30;9.05;;;;;;;;;;5052619;28;20033;-90
2021/11/29 20:11:10;;;;;;;18.65;9.50;;;;;;;;;;5035310;28;20025;-90
2021/11/29 20:13:36;;;;;;;18.10;9.20;;;;;;;;;;5034934;28;20048;-91
2021/11/29 20:16:04;;;;;;;13.60;8.85;;;;;;;;;;5052844;28;20439;-90
2021/11/29 20:18:30;;;;;;;14.10;9.18;;;;;;;;;;5034981;28;20429;-90
2021/11/29 20:20:56;;;;;;;16.65;9.93;;;;;;;;;;5035334;28;20070;-90
2021/11/29 20:23:21;;;;;;;14.45;9.68;;;;;;;;;;5040570;28;20465;-90
2021/11/29 20:25:46;;;;;;;15.48;9.95;;;;;;;;;;5054244;28;20028;-90
2021/11/29 20:28:11;;;;;;;15.32;10.30;;;;;;;;;;5036197;28;20063;-89
2021/11/29 20:30:37;;;;;;;14.75;10.93;;;;;;;;;;5052701;28;20088;-90
2021/11/29 20:33:02;;;;;;;17.45;10.02;;;;;;;;;;5034305;28;20111;-90
2021/11/29 20:35:28;;;;;;;16.10;9.70;;;;;;;;;;5034481;28;20024;-90
2021/11/29 20:37:54;;;;;;;14.63;10.35;;;;;;;;;;5034642;28;20029;-90
2021/11/29 20:40:19;;;;;;;17.33;11.27;;;;;;;;;;5052417;28;20052;-90
2021/11/29 20:42:45;;;;;;;21.02;12.32;;;;;;;;;;5034387;28;20142;-90
2021/11/29 20:45:11;;;;;;;15.98;11.60;;;;;;;;;;5034410;28;20487;-91
2021/11/29 20:47:37;;;;;;;19.35;11.32;;;;;;;;;;5052551;28;20155;-90
2021/11/29 20:50:03;;;;;;;14.90;9.70;;;;;;;;;;5034266;28;20123;-90
2021/11/29 20:52:29;;;;;;;17.77;10.55;;;;;;;;;;5033957;28;20028;-90
2021/11/29 20:54:54;;;;;;;16.88;10.23;;;;;;;;;;5053713;28;20017;-91
2021/11/29 20:57:20;;;;;;;16.63;10.90;;;;;;;;;;5055097;28;20096;-91
2021/11/29 20:59:46;;;;;;;14.68;9.73;;;;;;;;;;5052703;28;20016;-90
2021/11/29 21:02:12;;;;;;;15.60;10.73;;;;;;;;;;5053111;28;20022;-90
2021/11/29 21:04:37;;;;;;;16.00;10.68;;;;;;;;;;5034553;28;20039;-90
2021/11/29 21:07:04;;;;;;;16.23;10.52;;;;;;;;;;5034043;28;20025;-90
2021/11/29 21:09:30;;;;;;;19.17;12.50;;;;;;;;;;5034015;28;20102;-91
2021/11/29 21:11:55;;;;;;;16.27;11.32;;;;;;;;;;5033835;28;20021;-90
2021/11/29 21:14:20;;;;;;;19.48;11.48;;;;;;;;;;5034021;28;20375;-90
2021/11/29 21:16:45;;;;;;;14.05;10.00;;;;;;;;;;5033937;28;20021;-90
2021/11/29 21:19:12;;;;;;;16.35;12.00;;;;;;;;;;5033638;28;20024;-90
2021/11/29 21:21:38;;;;;;;13.13;10.65;;;;;;;;;;5033565;28;20035;-90
2021/11/29 21:24:04;;;;;;;14.23;10.98;;;;;;;;;;5033729;28;20024;-90
2021/11/29 21:26:31;;;;;;;14.25;10.88;;;;;;;;;;5033595;28;20025;-90
2021/11/29 21:28:56;;;;;;;16.55;11.90;;;;;;;;;;5033267;28;20063;-90
2021/11/29 21:31:21;;;;;;;14.45;10.07;;;;;;;;;;5034490;28;20033;-90
2021/11/29 21:33:47;;;;;;;15.77;10.93;;;;;;;;;;5033193;28;20025;-90
2021/11/29 21:36:12;;;;;;;14.00;10.10;;;;;;;;;;5034507;28;20388;-90
2021/11/29 21:38:37;;;;;;;13.43;9.25;;;;;;;;;;5051258;28;20021;-90
2021/11/29 21:41:03;;;;;;;13.07;9.15;;;;;;;;;;5033389;28;20725;-90
2021/11/29 21:43:28;;;;;;;15.65;9.75;;;;;;;;;;5033128;28;20028;-90
2021/11/29 21:45:53;;;;;;;14.48;8.82;;;;;;;;;;5033147;28;20033;-89
2021/11/29 21:48:19;;;;;;;17.17;10.20;;;;;;;;;;5051399;28;20056;-90
2021/11/29 21:50:45;;;;;;;12.25;9.02;;;;;;;;;;5033224;28;20024;-91
2021/11/29 21:53:11;;;;;;;15.23;8.63;;;;;;;;;;5033240;28;20028;-90
2021/11/29 21:55:36;;;;;;;13.10;8.75;;;;;;;;;;5033157;28;20021;-90
2021/11/29 21:58:02;;;;;;;16.25;10.05;;;;;;;;;;5051691;28;20104;-90
2021/11/29 22:00:28;;;;;;;11.20;8.68;;;;;;;;;;5050988;28;20124;-91
2021/11/29 22:02:53;;;;;;;13.38;8.68;;;;;;;;;;5031965;28;20762;-90
2021/11/29 22:05:21;;;;;;;13.48;8.85;;;;;;;;;;5035582;28;20033;-90
2021/11/29 22:07:46;;;;;;;14.00;8.95;;;;;;;;;;5033635;28;20048;-90
2021/11/29 22:10:11;;;;;;;12.55;8.38;;;;;;;;;;5033753;28;20831;-91
2021/11/29 22:12:37;;;;;;;13.00;8.55;;;;;;;;;;5050884;28;20020;-90
2021/11/29 22:15:03;;;;;;;11.80;8.20;;;;;;;;;;5032627;28;20056;-90
2021/11/29 22:17:28;;;;;;;12.40;7.85;;;;;;;;;;5050573;28;20040;-90
2021/11/29 22:19:53;;;;;;;12.98;8.32;;;;;;;;;;5033528;28;20021;-90
2021/11/29 22:22:19;;;;;;;12.85;9.18;;;;;;;;;;5051357;28;20546;-90
2021/11/29 22:24:44;;;;;;;13.52;8.25;;;;;;;;;;5032346;28;20032;-90
2021/11/29 22:27:10;;;;;;;11.13;8.25;;;;;;;;;;5032672;28;20057;-90
2021/11/29 22:29:35;;;;;;;12.60;8.38;;;;;;;;;;5032575;28;20029;-90
2021/11/29 22:32:00;;;;;;;10.43;7.32;;;;;;;;;;5032675;28;20104;-90
2021/11/29 22:34:25;;;;;;;13.05;6.85;;;;;;;;;;5032453;28;20029;-90
2021/11/29 22:36:51;;;;;;;12.90;7.75;;;;;;;;;;5032743;28;20396;-90
2021/11/29 22:39:17;;;;;;;11.00;7.15;;;;;;;;;;5032383;28;20021;-90
2021/11/29 22:41:42;;;;;;;9.77;7.18;;;;;;;;;;5050730;28;20400;-89
2021/11/29 22:44:08;;;;;;;10.68;7.28;;;;;;;;;;5050979;28;20090;-89
2021/11/29 22:46:33;;;;;;;11.40;7.30;;;;;;;;;;5032370;28;20103;-90
2021/11/29 22:48:58;;;;;;;13.98;7.45;;;;;;;;;;5032689;28;20064;-90
2021/11/29 22:51:24;;;;;;;13.40;7.13;;;;;;;;;;5050664;28;20017;-90
2021/11/29 22:53:49;;;;;;;10.55;6.53;;;;;;;;;;5050306;28;20028;-89
2021/11/29 22:56:15;;;;;;;11.50;6.43;;;;;;;;;;5052379;28;20112;-90
2021/11/29 22:58:42;;;;;;;9.88;6.20;;;;;;;;;;5050081;28;20037;-90
2021/11/29 23:01:09;;;;;;;10.70;6.13;;;;;;;;;;5050219;28;20221;-90
2021/11/29 23:03:37;;;;;;;12.15;6.72;;;;;;;;;;5050137;28;20381;-90
2021/11/29 23:06:10;;;;;;;14.50;7.15;;;;;;;;;;5050351;28;20025;-90
2021/11/29 23:08:50;;;;;;;9.00;5.82;;;;;;;;;;5031795;28;20043;-90
2021/11/29 23:11:17;;;;;;;7.75;5.82;;;;;;;;;;5043940;28;20025;-90
2021/11/29 23:13:43;;;;;;;14.20;6.10;;;;;;;;;;5050172;28;20044;-90
2021/11/29 23:16:08;;;;;;;6.70;5.60;;;;;;;;;;5037074;28;20484;-90
2021/11/29 23:18:34;;;;;;;9.02;5.68;;;;;;;;;;5053665;28;20473;-90
2021/11/29 23:21:00;;;;;;;9.88;6.28;;;;;;;;;;5053687;28;20029;-90
2021/11/29 23:23:25;;;;;;;10.70;6.28;;;;;;;;;;5053773;28;20023;-90
2021/11/29 23:25:50;;;;;;;7.75;6.10;;;;;;;;;;5053728;28;20017;-90
2021/11/29 23:28:16;;;;;;;10.43;6.20;;;;;;;;;;5035601;28;20056;-89
2021/11/29 23:30:41;;;;;;;14.80;6.68;;;;;;;;;;5035347;28;20017;-90
2021/11/29 23:33:06;;;;;;;9.07;7.13;;;;;;;;;;5053280;28;20512;-90
2021/11/29 23:35:31;;;;;;;10.25;5.88;;;;;;;;;;5035479;28;20427;-90
2021/11/29 23:37:56;;;;;;;10.25;7.30;;;;;;;;;;5035589;28;20706;-90
2021/11/29 23:40:22;;;;;;;10.70;6.63;;;;;;;;;;5053639;28;20098;-90
2021/11/29 23:42:47;;;;;;;12.38;6.85;;;;;;;;;;5054610;28;20448;-89
2021/11/29 23:45:13;;;;;;;10.90;6.78;;;;;;;;;;5035996;28;20592;-90
2021/11/29 23:47:51;;;;;;;9.73;7.32;;;;;;;;;;5053558;28;20055;-90
2021/11/29 23:50:17;;;;;;;10.63;7.28;;;;;;;;;;5035379;28;20068;-90
2021/11/29 23:52:42;;;;;;;12.35;7.10;;;;;;;;;;5035400;28;20048;-90
2021/11/29 23:55:09;;;;;;;15.85;7.22;;;;;;;;;;5035324;28;20025;-90
2021/11/29 23:57:34;;;;;;;10.23;6.22;;;;;;;;;;5034869;28;20044;-90
